sensor_id;sensor_type;location;lat;lon;timestamp;pressure;altitude;pressure_sealevel;temperature;humidity
26839;BME280;40088;51.214;6.786;2023-12-20T00:08:40;101226.59;;;14.85;58.21
26839;BME280;40088;51.214;6.786;2023-12-20T00:18:40;101222.81;;;14.87;58.12
26839;BME280;40088;51.214;6.786;2023-12-20T00:28:40;101243.91;;;14.86;58.06
26839;BME280;40088;51.214;6.786;2023-12-20T00:38:40;101249.41;;;14.86;57.95
26839;BME280;40088;51.214;6.786;2023-12-20T00:48:41;101240.31;;;14.85;57.87
26839;BME280;40088;51.214;6.786;2023-12-20T00:58:42;101259.53;;;14.85;57.85
26839;BME280;40088;51.214;6.786;2023-12-20T01:08:42;101250.44;;;14.85;57.80
26839;BME280;40088;51.214;6.786;2023-12-20T01:18:42;101259.72;;;14.84;57.73
26839;BME280;40088;51.214;6.786;2023-12-20T01:28:43;101273.41;;;14.84;57.61
26839;BME280;40088;51.214;6.786;2023-12-20T01:38:43;101265.19;;;14.84;57.62
26839;BME280;40088;51.214;6.786;2023-12-20T01:48:43;101287.16;;;14.84;57.53
26839;BME280;40088;51.214;6.786;2023-12-20T01:58:45;101288.16;;;14.83;57.51
26839;BME280;40088;51.214;6.786;2023-12-20T02:08:46;101292.78;;;14.82;57.11
26839;BME280;40088;51.214;6.786;2023-12-20T02:18:46;101301.19;;;14.81;57.18
26839;BME280;40088;51.214;6.786;2023-12-20T02:28:47;101292.09;;;14.80;56.89
26839;BME280;40088;51.214;6.786;2023-12-20T02:38:47;101307.72;;;14.80;56.84
26839;BME280;40088;51.214;6.786;2023-12-20T02:48:48;101309.41;;;14.81;56.53
26839;BME280;40088;51.214;6.786;2023-12-20T02:58:48;101306.84;;;14.79;56.93
26839;BME280;40088;51.214;6.786;2023-12-20T03:08:49;101303.25;;;14.79;56.41
26839;BME280;40088;51.214;6.786;2023-12-20T03:18:49;101308.75;;;14.79;56.55
26839;BME280;40088;51.214;6.786;2023-12-20T03:28:49;101312.47;;;14.78;56.38
26839;BME280;40088;51.214;6.786;2023-12-20T03:38:50;101308.03;;;14.77;55.94
26839;BME280;40088;51.214;6.786;2023-12-20T03:48:50;101285.06;;;14.78;56.08
26839;BME280;40088;51.214;6.786;2023-12-20T03:58:50;101280.78;;;14.75;56.10
26839;BME280;40088;51.214;6.786;2023-12-20T04:08:50;101289.84;;;14.76;55.89
26839;BME280;40088;51.214;6.786;2023-12-20T04:18:51;101285.41;;;14.75;55.75
26839;BME280;40088;51.214;6.786;2023-12-20T04:28:51;101297.22;;;14.75;55.72
26839;BME280;40088;51.214;6.786;2023-12-20T04:38:51;101308.22;;;14.75;55.82
26839;BME280;40088;51.214;6.786;2023-12-20T04:48:52;101299.13;;;14.75;55.69
26839;BME280;40088;51.214;6.786;2023-12-20T04:58:52;101302.91;;;14.74;55.37
26839;BME280;40088;51.214;6.786;2023-12-20T05:08:52;101307.53;;;14.73;55.52
26839;BME280;40088;51.214;6.786;2023-12-20T05:18:52;101300.16;;;14.74;55.45
26839;BME280;40088;51.214;6.786;2023-12-20T05:28:53;101313.88;;;14.74;55.23
26839;BME280;40088;51.214;6.786;2023-12-20T05:38:53;101301.16;;;14.73;55.17
26839;BME280;40088;51.214;6.786;2023-12-20T05:48:53;101301.16;;;14.73;55.15
26839;BME280;40088;51.214;6.786;2023-12-20T05:58:54;101291.22;;;14.72;54.92
26839;BME280;40088;51.214;6.786;2023-12-20T06:08:54;101296.69;;;14.72;54.92
26839;BME280;40088;51.214;6.786;2023-12-20T06:18:54;101315.06;;;14.71;55.04
26839;BME280;40088;51.214;6.786;2023-12-20T06:28:54;101316.94;;;14.71;55.06
26839;BME280;40088;51.214;6.786;2023-12-20T06:38:55;101316.09;;;14.70;54.91
26839;BME280;40088;51.214;6.786;2023-12-20T06:48:55;101310.59;;;14.70;54.90
26839;BME280;40088;51.214;6.786;2023-12-20T06:58:56;101307.84;;;14.70;54.92
26839;BME280;40088;51.214;6.786;2023-12-20T07:08:56;101306.16;;;14.69;54.61
26839;BME280;40088;51.214;6.786;2023-12-20T07:18:56;101301.69;;;14.68;54.81
26839;BME280;40088;51.214;6.786;2023-12-20T07:28:57;101311.78;;;14.68;54.67
26839;BME280;40088;51.214;6.786;2023-12-20T07:38:58;101312.66;;;14.68;54.44
26839;BME280;40088;51.214;6.786;2023-12-20T07:48:59;101312.66;;;14.68;54.62
26839;BME280;40088;51.214;6.786;2023-12-20T07:58:59;101301.69;;;14.68;54.53
26839;BME280;40088;51.214;6.786;2023-12-20T08:08:59;101309.91;;;14.68;54.59
26839;BME280;40088;51.214;6.786;2023-12-20T08:18:59;101314.50;;;14.68;54.55
26839;BME280;40088;51.214;6.786;2023-12-20T08:29:00;101310.91;;;14.67;54.51
26839;BME280;40088;51.214;6.786;2023-12-20T08:39:00;101311.78;;;14.68;54.48
26839;BME280;40088;51.214;6.786;2023-12-20T08:49:01;101324.63;;;14.67;54.32
26839;BME280;40088;51.214;6.786;2023-12-20T08:59:01;101324.81;;;14.66;54.31
26839;BME280;40088;51.214;6.786;2023-12-20T09:09:02;101323.78;;;14.67;54.31
26839;BME280;40088;51.214;6.786;2023-12-20T09:19:02;101303.91;;;14.65;54.04
26839;BME280;40088;51.214;6.786;2023-12-20T09:29:03;101308.34;;;14.66;54.14
26839;BME280;40088;51.214;6.786;2023-12-20T09:39:04;101310.41;;;14.64;54.07
26839;BME280;40088;51.214;6.786;2023-12-20T09:49:04;101312.13;;;14.65;53.82
26839;BME280;40088;51.214;6.786;2023-12-20T09:59:06;101307.69;;;14.64;53.98
26839;BME280;40088;51.214;6.786;2023-12-20T10:09:06;101306.66;;;14.65;54.06
26839;BME280;40088;51.214;6.786;2023-12-20T10:19:06;101301.34;;;14.63;53.88
26839;BME280;40088;51.214;6.786;2023-12-20T10:29:06;101292.22;;;14.63;53.70
26839;BME280;40088;51.214;6.786;2023-12-20T10:39:08;101281.09;;;14.64;53.83
26839;BME280;40088;51.214;6.786;2023-12-20T10:49:10;101267.53;;;14.63;53.92
26839;BME280;40088;51.214;6.786;2023-12-20T10:59:11;101259.31;;;14.63;53.77
26839;BME280;40088;51.214;6.786;2023-12-20T11:09:31;101254.84;;;14.62;53.66
26839;BME280;40088;51.214;6.786;2023-12-20T11:20:03;101255.72;;;14.62;53.84
26839;BME280;40088;51.214;6.786;2023-12-20T11:30:04;101241.13;;;14.62;53.93
26839;BME280;40088;51.214;6.786;2023-12-20T11:40:14;101230.16;;;14.62;53.93
26839;BME280;40088;51.214;6.786;2023-12-20T11:50:15;101241.13;;;14.62;53.71
26839;BME280;40088;51.214;6.786;2023-12-20T12:00:16;101237.38;;;14.63;53.64
26839;BME280;40088;51.214;6.786;2023-12-20T12:10:17;101224.69;;;14.62;53.88
26839;BME280;40088;51.214;6.786;2023-12-20T12:20:20;101198.09;;;14.62;53.88
26839;BME280;40088;51.214;6.786;2023-12-20T12:30:20;101201.72;;;14.63;53.85
26839;BME280;40088;51.214;6.786;2023-12-20T12:40:21;101197.25;;;14.62;53.94
26839;BME280;40088;51.214;6.786;2023-12-20T12:50:21;101198.97;;;14.63;53.95
26839;BME280;40088;51.214;6.786;2023-12-20T13:00:21;101177.03;;;14.63;53.83
26839;BME280;40088;51.214;6.786;2023-12-20T13:10:22;101164.19;;;14.63;53.96
26839;BME280;40088;51.214;6.786;2023-12-20T13:20:23;101149.59;;;14.63;53.84
26839;BME280;40088;51.214;6.786;2023-12-20T13:30:23;101127.66;;;14.63;54.32
26839;BME280;40088;51.214;6.786;2023-12-20T13:40:23;101101.25;;;14.62;54.34
26839;BME280;40088;51.214;6.786;2023-12-20T13:50:24;101109.50;;;14.62;54.37
26839;BME280;40088;51.214;6.786;2023-12-20T14:00:24;101085.66;;;14.62;54.46
26839;BME280;40088;51.214;6.786;2023-12-20T14:10:24;101099.22;;;14.64;54.41
26839;BME280;40088;51.214;6.786;2023-12-20T14:20:27;101088.41;;;14.62;54.40
26839;BME280;40088;51.214;6.786;2023-12-20T14:30:29;101076.59;;;14.62;54.67
26839;BME280;40088;51.214;6.786;2023-12-20T14:40:29;101085.50;;;14.64;54.62
26839;BME280;40088;51.214;6.786;2023-12-20T14:50:30;101081.03;;;14.63;54.56
26839;BME280;40088;51.214;6.786;2023-12-20T15:00:31;101080.19;;;14.62;54.58
26839;BME280;40088;51.214;6.786;2023-12-20T15:10:31;101081.03;;;14.63;54.82
26839;BME280;40088;51.214;6.786;2023-12-20T15:20:31;101070.94;;;14.63;54.76
26839;BME280;40088;51.214;6.786;2023-12-20T15:30:33;101076.44;;;14.63;54.84
26839;BME280;40088;51.214;6.786;2023-12-20T15:40:34;101074.53;;;14.64;54.93
26839;BME280;40088;51.214;6.786;2023-12-20T15:50:34;101072.81;;;14.63;55.07
26839;BME280;40088;51.214;6.786;2023-12-20T16:00:35;101061.84;;;14.63;55.01
26839;BME280;40088;51.214;6.786;2023-12-20T16:10:35;101066.31;;;14.64;54.89
26839;BME280;40088;51.214;6.786;2023-12-20T16:20:38;101052.59;;;14.64;54.96
26839;BME280;40088;51.214;6.786;2023-12-20T16:30:39;101038.88;;;14.64;55.17
26839;BME280;40088;51.214;6.786;2023-12-20T16:40:39;101033.41;;;14.64;54.81
26839;BME280;40088;51.214;6.786;2023-12-20T16:50:40;101025.84;;;14.74;55.04
26839;BME280;40088;51.214;6.786;2023-12-20T17:00:40;101023.75;;;14.76;54.72
26839;BME280;40088;51.214;6.786;2023-12-20T17:10:40;101008.34;;;14.75;55.08
26839;BME280;40088;51.214;6.786;2023-12-20T17:20:41;100989.47;;;14.72;55.10
26839;BME280;40088;51.214;6.786;2023-12-20T17:30:41;100988.81;;;14.70;55.01
26839;BME280;40088;51.214;6.786;2023-12-20T17:40:41;100967.91;;;14.69;55.16
26839;BME280;40088;51.214;6.786;2023-12-20T17:50:42;100960.69;;;14.68;55.00
26839;BME280;40088;51.214;6.786;2023-12-20T18:00:43;100938.94;;;14.66;55.13
26839;BME280;40088;51.214;6.786;2023-12-20T18:10:43;100927.09;;;14.66;55.11
26839;BME280;40088;51.214;6.786;2023-12-20T18:20:43;100923.50;;;14.65;55.11
26839;BME280;40088;51.214;6.786;2023-12-20T18:30:43;100908.94;;;14.65;55.25
26839;BME280;40088;51.214;6.786;2023-12-20T18:40:44;100898.84;;;14.65;55.13
26839;BME280;40088;51.214;6.786;2023-12-20T18:50:47;100878.78;;;14.65;55.27
26839;BME280;40088;51.214;6.786;2023-12-20T19:00:47;100867.81;;;14.65;55.27
26839;BME280;40088;51.214;6.786;2023-12-20T19:10:48;100857.69;;;14.65;55.23
26839;BME280;40088;51.214;6.786;2023-12-20T19:20:48;100838.50;;;14.65;55.37
26839;BME280;40088;51.214;6.786;2023-12-20T19:30:48;100817.59;;;14.64;55.39
26839;BME280;40088;51.214;6.786;2023-12-20T19:40:49;100818.44;;;14.65;55.42
26839;BME280;40088;51.214;6.786;2023-12-20T19:50:50;100798.19;;;14.66;55.54
26839;BME280;40088;51.214;6.786;2023-12-20T20:00:51;100791.88;;;14.65;55.43
26839;BME280;40088;51.214;6.786;2023-12-20T20:10:51;100773.72;;;14.64;55.70
26839;BME280;40088;51.214;6.786;2023-12-20T20:20:52;100766.34;;;14.65;55.71
26839;BME280;40088;51.214;6.786;2023-12-20T20:30:52;100742.50;;;14.65;55.82
26839;BME280;40088;51.214;6.786;2023-12-20T20:40:52;100730.69;;;14.65;55.81
26839;BME280;40088;51.214;6.786;2023-12-20T20:50:54;100727.94;;;14.65;56.06
26839;BME280;40088;51.214;6.786;2023-12-20T21:00:58;100736.16;;;14.65;55.91
26839;BME280;40088;51.214;6.786;2023-12-20T21:10:58;100734.28;;;14.65;56.28
26839;BME280;40088;51.214;6.786;2023-12-20T21:20:59;100719.72;;;14.65;56.43
26839;BME280;40088;51.214;6.786;2023-12-20T21:30:59;100703.25;;;14.65;56.45
26839;BME280;40088;51.214;6.786;2023-12-20T21:41:00;100683.03;;;14.66;56.54
26839;BME280;40088;51.214;6.786;2023-12-20T21:51:00;100663.81;;;14.66;56.60
26839;BME280;40088;51.214;6.786;2023-12-20T22:01:00;100655.59;;;14.66;56.92
26839;BME280;40088;51.214;6.786;2023-12-20T22:11:00;100646.53;;;14.65;56.82
26839;BME280;40088;51.214;6.786;2023-12-20T22:21:01;100641.03;;;14.65;56.99
26839;BME280;40088;51.214;6.786;2023-12-20T22:31:02;100628.16;;;14.66;57.10
26839;BME280;40088;51.214;6.786;2023-12-20T22:41:02;100632.63;;;14.67;57.37
26839;BME280;40088;51.214;6.786;2023-12-20T22:51:02;100621.66;;;14.67;57.30
26839;BME280;40088;51.214;6.786;2023-12-20T23:01:03;100598.00;;;14.66;57.48
26839;BME280;40088;51.214;6.786;2023-12-20T23:11:03;100599.69;;;14.67;57.35
26839;BME280;40088;51.214;6.786;2023-12-20T23:21:04;100584.28;;;14.66;57.57
26839;BME280;40088;51.214;6.786;2023-12-20T23:31:06;100578.81;;;14.66;57.68
26839;BME280;40088;51.214;6.786;2023-12-20T23:41:07;100553.09;;;14.67;57.71
26839;BME280;40088;51.214;6.786;2023-12-20T23:51:07;100537.47;;;14.67;57.70
